Time;durP1;ratioP1;P1;durP2;ratioP2;P2;SDS_P1;SDS_P2;PMS_P1;PMS_P2;Temp;Humidity;BMP_temperature;BMP_pressure;BME280_temperature;BME280_humidity;BME280_pressure;Samples;Min_cycle;Max_cycle;Signal;HPM_P1;HPM_P2
2023/03/31 00:01:18;;;;;;;8.52;1.40;;;11.70;99.90;;;;;;4944183;28;20030;-81
2023/03/31 00:03:44;;;;;;;4.93;1.30;;;11.60;99.90;;;;;;4928909;29;20015;-80
2023/03/31 00:06:16;;;;;;;7.40;1.33;;;11.60;99.90;;;;;;4947596;28;20034;-89
2023/03/31 00:08:46;;;;;;;7.75;1.73;;;11.70;99.90;;;;;;4946481;28;20253;-86
2023/03/31 00:11:12;;;;;;;11.38;2.17;;;11.70;99.90;;;;;;4931538;28;20039;-91
2023/03/31 00:13:38;;;;;;;7.40;2.05;;;11.70;99.90;;;;;;4948319;28;20034;-90
2023/03/31 00:16:07;;;;;;;5.40;1.52;;;11.70;99.90;;;;;;4933274;29;20175;-80
2023/03/31 00:18:33;;;;;;;8.57;1.50;;;11.80;99.90;;;;;;4932743;28;20054;-82
2023/03/31 00:21:23;;;;;;;4.20;1.08;;;11.70;99.90;;;;;;4929582;28;20055;-80
2023/03/31 00:23:57;;;;;;;6.38;1.38;;;11.80;99.90;;;;;;4945534;28;20035;-81
2023/03/31 00:26:23;;;;;;;5.88;1.70;;;11.80;99.90;;;;;;4922534;28;20019;-81
2023/03/31 00:28:50;;;;;;;5.20;1.88;;;11.80;99.90;;;;;;4929555;29;20024;-81
2023/03/31 00:31:16;;;;;;;7.35;1.77;;;11.80;99.90;;;;;;4944996;28;20027;-81
2023/03/31 00:33:42;;;;;;;5.38;1.52;;;11.90;99.90;;;;;;4946364;28;20468;-91
2023/03/31 00:36:07;;;;;;;6.43;1.60;;;11.90;99.90;;;;;;4934337;29;20121;-94
2023/03/31 00:38:33;;;;;;;4.97;1.20;;;11.90;99.90;;;;;;4935275;28;20036;-87
2023/03/31 00:41:00;;;;;;;4.47;1.23;;;12.00;99.90;;;;;;4933783;29;20026;-94
2023/03/31 00:43:36;;;;;;;6.55;1.55;;;11.90;99.90;;;;;;4932774;28;20031;-86
2023/03/31 00:46:06;;;;;;;2.53;1.48;;;12.00;99.90;;;;;;4950313;28;20062;-94
2023/03/31 00:48:35;;;;;;;7.72;1.35;;;12.00;99.90;;;;;;4931918;28;20110;-94
2023/03/31 00:51:06;;;;;;;9.30;1.88;;;12.10;99.90;;;;;;4931350;29;20103;-93
2023/03/31 00:53:33;;;;;;;11.73;1.48;;;12.10;99.90;;;;;;4932359;28;20479;-93
2023/03/31 00:56:06;;;;;;;7.80;1.65;;;12.10;99.90;;;;;;4932531;29;20035;-86
2023/03/31 00:58:32;;;;;;;7.35;1.38;;;12.20;99.90;;;;;;4925798;28;20038;-91
2023/03/31 01:01:01;;;;;;;5.47;1.60;;;12.30;99.90;;;;;;4923393;28;20188;-90
2023/03/31 01:03:29;;;;;;;5.80;1.33;;;12.30;99.90;;;;;;4925278;28;20518;-87
2023/03/31 01:05:58;;;;;;;9.48;1.25;;;12.30;99.90;;;;;;4948171;28;20634;-88
2023/03/31 01:08:26;;;;;;;7.93;1.73;;;12.40;99.90;;;;;;4923025;28;20034;-83
2023/03/31 01:11:00;;;;;;;9.60;1.55;;;12.30;99.90;;;;;;4921864;28;20039;-88
2023/03/31 01:13:27;;;;;;;6.45;1.40;;;12.20;99.90;;;;;;4947858;28;20141;-85
2023/03/31 01:15:53;;;;;;;4.75;1.38;;;12.20;99.90;;;;;;4929440;28;20038;-87
2023/03/31 01:18:20;;;;;;;6.88;1.58;;;12.10;99.90;;;;;;4927726;29;20118;-88
2023/03/31 01:20:54;;;;;;;9.40;1.65;;;12.10;99.90;;;;;;4957253;28;20074;-83
2023/03/31 01:23:35;;;;;;;5.28;1.48;;;11.90;99.90;;;;;;4946574;28;20047;-83
2023/03/31 01:26:13;;;;;;;5.95;1.40;;;11.90;99.90;;;;;;4968105;28;20007;-89
2023/03/31 01:28:45;;;;;;;5.82;2.00;;;11.90;99.90;;;;;;4970884;28;20019;-82
2023/03/31 01:31:16;;;;;;;6.00;1.25;;;11.80;99.90;;;;;;4949903;28;20023;-88
2023/03/31 01:34:27;;;;;;;5.70;1.52;;;11.70;99.90;;;;;;4947376;28;20023;-86
2023/03/31 01:36:56;;;;;;;10.20;1.73;;;11.70;99.90;;;;;;4909277;28;20090;-88
2023/03/31 01:40:06;;;;;;;5.07;1.42;;;11.70;99.90;;;;;;4952477;28;20031;-88
2023/03/31 01:42:47;;;;;;;5.57;1.60;;;11.70;99.90;;;;;;4930464;28;20035;-89
2023/03/31 01:45:29;;;;;;;6.47;1.50;;;11.70;99.90;;;;;;4947175;28;20181;-87
2023/03/31 01:48:01;;;;;;;4.20;1.30;;;11.70;99.90;;;;;;4919565;28;20028;-86
2023/03/31 01:50:52;;;;;;;3.90;1.35;;;11.60;99.90;;;;;;4947973;28;20019;-88
2023/03/31 01:53:23;;;;;;;5.18;1.30;;;11.70;99.90;;;;;;4935411;28;20035;-89
2023/03/31 01:56:24;;;;;;;6.88;1.80;;;11.70;99.90;;;;;;4929885;28;20049;-91
2023/03/31 01:59:03;;;;;;;4.07;1.30;;;11.70;99.90;;;;;;4944761;28;20092;-83
2023/03/31 02:01:36;;;;;;;6.13;1.60;;;11.70;99.90;;;;;;4946232;28;20043;-92
2023/03/31 02:04:43;;;;;;;5.32;1.50;;;11.80;99.90;;;;;;4937027;29;20031;-81
2023/03/31 02:07:16;;;;;;;3.63;0.98;;;11.80;99.90;;;;;;4902180;29;20046;-90
2023/03/31 02:09:47;;;;;;;5.63;1.52;;;11.80;99.90;;;;;;4936507;28;20051;-89
2023/03/31 02:12:15;;;;;;;6.22;1.40;;;11.80;99.90;;;;;;4955502;28;20115;-88
2023/03/31 02:14:44;;;;;;;5.15;1.48;;;11.80;99.90;;;;;;4943776;29;20033;-85
2023/03/31 02:17:16;;;;;;;6.88;1.20;;;11.90;99.90;;;;;;4946164;28;20047;-84
2023/03/31 02:19:44;;;;;;;;;;;11.80;99.90;;;;;;4949946;28;20038;-89
2023/03/31 02:22:11;;;;;;;7.80;1.55;;;11.80;99.90;;;;;;4934023;28;19910;-92
2023/03/31 02:24:39;;;;;;;7.13;1.30;;;11.80;99.90;;;;;;4933159;28;20371;-91
2023/03/31 02:27:08;;;;;;;5.28;0.90;;;11.80;99.90;;;;;;4953708;28;20068;-90
2023/03/31 02:29:35;;;;;;;8.48;1.38;;;11.80;99.90;;;;;;4935136;28;20023;-88
2023/03/31 02:32:15;;;;;;;4.28;1.10;;;11.70;99.90;;;;;;4957910;28;20027;-88
2023/03/31 02:34:41;;;;;;;9.85;1.50;;;11.70;99.90;;;;;;4937076;28;20083;-84
2023/03/31 02:37:09;;;;;;;5.60;1.20;;;11.70;99.90;;;;;;4957988;28;20807;-89
2023/03/31 02:39:39;;;;;;;7.57;1.25;;;11.80;99.90;;;;;;4955512;28;20070;-92
2023/03/31 02:42:08;;;;;;;2.80;1.15;;;11.70;99.90;;;;;;4932143;28;20015;-86
2023/03/31 02:44:39;;;;;;;8.07;1.20;;;11.70;99.90;;;;;;4935311;28;20027;-89
2023/03/31 02:47:08;;;;;;;7.20;1.00;;;11.70;99.90;;;;;;4927882;28;20023;-89
2023/03/31 02:49:39;;;;;;;5.90;1.23;;;11.80;99.90;;;;;;4935493;29;20046;-89
2023/03/31 02:52:33;;;;;;;8.95;1.25;;;11.80;99.90;;;;;;4929298;28;20107;-91
2023/03/31 02:55:23;;;;;;;6.43;1.42;;;11.70;99.90;;;;;;4936811;28;20096;-86
2023/03/31 02:57:58;;;;;;;8.57;2.13;;;11.70;99.90;;;;;;4963733;28;20026;-87
2023/03/31 03:01:01;;;;;;;9.75;1.88;;;11.70;99.90;;;;;;5090786;23;20622;-90
2023/03/31 03:03:40;;;;;;;8.88;2.05;;;11.60;99.90;;;;;;4964606;28;20022;-92
2023/03/31 03:06:52;;;;;;;6.85;2.28;;;11.60;99.90;;;;;;4985675;28;20180;-92
2023/03/31 03:09:35;;;;;;;10.15;1.73;;;11.60;99.90;;;;;;4947757;28;20042;-89
2023/03/31 03:12:10;;;;;;;7.43;1.27;;;11.70;99.90;;;;;;4982625;28;20014;-86
2023/03/31 03:14:41;;;;;;;9.63;1.70;;;11.60;99.90;;;;;;4964987;28;20153;-90
2023/03/31 03:17:19;;;;;;;6.97;1.55;;;11.60;99.90;;;;;;4976087;28;20113;-87
2023/03/31 03:19:51;;;;;;;10.77;1.58;;;11.60;99.90;;;;;;4987231;28;20057;-80
2023/03/31 03:22:17;;;;;;;11.73;2.70;;;11.70;99.90;;;;;;4981677;28;20021;-80
2023/03/31 03:24:43;;;;;;;12.13;2.60;;;11.70;99.90;;;;;;4982283;28;20027;-80
2023/03/31 03:27:09;;;;;;;15.98;2.13;;;11.70;99.90;;;;;;4979779;28;20033;-82
2023/03/31 03:29:34;;;;;;;10.18;2.05;;;11.70;99.90;;;;;;4980470;28;20105;-81
2023/03/31 03:32:00;;;;;;;10.27;2.20;;;11.70;99.90;;;;;;4987912;28;20022;-89
2023/03/31 03:34:27;;;;;;;9.68;1.88;;;11.70;99.90;;;;;;4969254;28;20034;-83
2023/03/31 03:36:52;;;;;;;7.80;1.73;;;11.70;99.90;;;;;;4978543;28;20062;-86
2023/03/31 03:39:18;;;;;;;6.40;1.50;;;11.70;99.90;;;;;;4979866;28;20141;-88
2023/03/31 03:41:45;;;;;;;19.33;2.70;;;11.70;99.90;;;;;;4983137;28;20156;-86
2023/03/31 03:44:11;;;;;;;9.30;2.25;;;11.80;99.90;;;;;;4984802;28;20022;-88
2023/03/31 03:46:41;;;;;;;7.97;2.58;;;11.80;99.90;;;;;;4994331;28;20037;-87
2023/03/31 03:49:09;;;;;;;7.63;2.03;;;11.80;99.90;;;;;;4988589;28;20023;-89
2023/03/31 03:51:34;;;;;;;6.80;2.00;;;11.90;99.90;;;;;;5003745;28;20062;-86
2023/03/31 03:54:00;;;;;;;9.70;2.00;;;11.90;99.90;;;;;;5004100;28;20015;-86
2023/03/31 03:56:26;;;;;;;8.27;2.10;;;11.90;99.90;;;;;;5006988;28;20060;-86
2023/03/31 03:58:55;;;;;;;10.90;1.80;;;11.90;99.90;;;;;;4981744;28;20041;-91
2023/03/31 04:01:21;;;;;;;15.02;2.15;;;11.90;99.90;;;;;;4986830;28;20041;-85
2023/03/31 04:03:47;;;;;;;5.28;1.65;;;11.90;99.90;;;;;;4984305;28;20026;-85
2023/03/31 04:06:15;;;;;;;18.65;3.03;;;11.90;99.90;;;;;;5002032;28;20026;-90
2023/03/31 04:08:40;;;;;;;9.60;2.08;;;11.90;99.90;;;;;;5006157;28;20023;-86
2023/03/31 04:11:18;;;;;;;5.25;1.48;;;11.90;99.90;;;;;;4987793;28;20045;-86
2023/03/31 04:13:48;;;;;;;21.27;2.38;;;11.90;99.90;;;;;;5002801;28;20056;-87
2023/03/31 04:16:15;;;;;;;12.73;2.65;;;11.90;99.90;;;;;;4980333;28;20030;-85
2023/03/31 04:18:57;;;;;;;13.85;2.40;;;11.90;99.90;;;;;;5002444;28;20048;-90
2023/03/31 04:21:23;;;;;;;10.38;2.40;;;11.90;99.90;;;;;;5010041;28;20089;-85
2023/03/31 04:23:57;;;;;;;17.10;2.50;;;11.90;99.90;;;;;;4988421;28;20057;-88
2023/03/31 04:26:29;;;;;;;13.05;2.95;;;11.90;99.90;;;;;;4973714;28;20133;-89
2023/03/31 04:28:59;;;;;;;16.88;2.50;;;11.90;99.90;;;;;;4966171;28;20034;-87
2023/03/31 04:31:26;;;;;;;13.43;2.10;;;11.90;99.90;;;;;;4989603;28;20080;-86
2023/03/31 04:33:54;;;;;;;14.88;2.20;;;12.00;99.90;;;;;;4962454;28;20332;-79
2023/03/31 04:36:23;;;;;;;14.05;2.17;;;11.90;99.90;;;;;;4970294;28;20026;-80
2023/03/31 04:38:53;;;;;;;11.70;1.98;;;12.00;99.90;;;;;;4982088;28;20045;-80
2023/03/31 04:41:23;;;;;;;9.30;1.83;;;12.00;99.90;;;;;;4965234;28;20081;-81
2023/03/31 04:43:48;;;;;;;10.73;2.00;;;12.00;99.90;;;;;;5079863;23;20043;-81
2023/03/31 04:46:14;;;;;;;12.05;2.95;;;12.00;99.90;;;;;;4933322;28;20416;-80
2023/03/31 04:48:40;;;;;;;13.60;2.47;;;12.10;99.90;;;;;;4936587;28;20024;-81
2023/03/31 04:51:09;;;;;;;13.90;2.63;;;12.10;99.90;;;;;;4934918;28;20133;-81
2023/03/31 04:53:35;;;;;;;11.57;1.98;;;12.10;99.90;;;;;;4920827;29;20404;-82
2023/03/31 04:56:01;;;;;;;8.75;1.90;;;12.10;99.90;;;;;;4931024;29;20134;-80
2023/03/31 04:58:29;;;;;;;7.55;1.83;;;12.10;99.90;;;;;;4920375;28;20037;-80
2023/03/31 05:00:55;;;;;;;12.52;2.65;;;12.10;99.90;;;;;;4930939;28;20050;-80
2023/03/31 05:03:20;;;;;;;10.82;2.20;;;12.10;99.90;;;;;;4921684;28;20472;-81
2023/03/31 05:05:46;;;;;;;10.90;2.28;;;12.20;99.90;;;;;;4922959;29;20035;-79
2023/03/31 05:08:12;;;;;;;11.43;2.05;;;12.10;99.90;;;;;;4936174;28;20063;-79
2023/03/31 05:10:37;;;;;;;10.38;1.90;;;12.20;99.90;;;;;;4936583;28;20031;-87
2023/03/31 05:13:03;;;;;;;14.07;2.30;;;12.10;99.90;;;;;;4937639;28;20028;-90
2023/03/31 05:15:28;;;;;;;6.70;1.52;;;12.10;99.90;;;;;;4920440;28;20129;-81
2023/03/31 05:17:56;;;;;;;11.35;2.17;;;12.00;99.90;;;;;;4933740;28;20019;-85
2023/03/31 05:20:22;;;;;;;16.42;2.13;;;12.10;99.90;;;;;;4924008;29;20221;-88
2023/03/31 05:22:49;;;;;;;4.88;1.50;;;12.00;99.90;;;;;;4929052;28;20027;-88
2023/03/31 05:25:17;;;;;;;9.18;1.73;;;12.00;99.90;;;;;;4922483;29;20031;-88
2023/03/31 05:27:44;;;;;;;11.60;1.80;;;11.90;99.90;;;;;;4928096;29;20038;-90
2023/03/31 05:30:10;;;;;;;4.65;1.40;;;12.00;99.90;;;;;;4938273;28;20031;-87
2023/03/31 05:32:36;;;;;;;10.98;1.60;;;11.90;99.90;;;;;;4926913;29;20383;-85
2023/03/31 05:35:02;;;;;;;7.50;1.58;;;11.90;99.90;;;;;;4951273;28;20095;-87
2023/03/31 05:37:31;;;;;;;6.75;1.30;;;11.90;99.90;;;;;;4949778;28;20007;-93
2023/03/31 05:39:56;;;;;;;5.65;1.50;;;11.90;99.90;;;;;;4944446;28;20107;-86
2023/03/31 05:42:26;;;;;;;6.72;1.55;;;12.00;99.90;;;;;;4939790;29;20091;-89
2023/03/31 05:44:52;;;;;;;6.20;1.98;;;12.00;99.90;;;;;;4937078;28;20043;-84
2023/03/31 05:47:18;;;;;;;11.02;2.10;;;12.10;99.90;;;;;;5086092;23;20050;-86
2023/03/31 05:49:43;;;;;;;10.70;1.80;;;12.10;99.90;;;;;;4982629;28;20019;-85
2023/03/31 05:52:10;;;;;;;8.55;1.77;;;12.20;99.90;;;;;;4998895;28;20026;-87
2023/03/31 05:54:38;;;;;;;12.07;2.10;;;12.20;99.90;;;;;;4990371;23;20099;-88
2023/03/31 05:57:05;;;;;;;13.60;2.78;;;12.20;99.90;;;;;;4975184;28;20023;-86
2023/03/31 05:59:33;;;;;;;6.10;2.22;;;12.20;99.90;;;;;;4965302;28;20037;-89
2023/03/31 06:01:59;;;;;;;12.10;2.58;;;12.20;99.90;;;;;;4961758;28;20034;-88
2023/03/31 06:04:25;;;;;;;8.45;2.10;;;12.20;99.90;;;;;;4981757;28;20035;-85
2023/03/31 06:06:54;;;;;;;10.23;2.50;;;12.10;99.90;;;;;;4982256;28;20027;-86
2023/03/31 06:09:20;;;;;;;7.20;1.90;;;12.20;99.90;;;;;;4955719;28;20023;-77
2023/03/31 06:11:46;;;;;;;9.07;2.60;;;12.10;99.90;;;;;;4960321;28;20101;-79
2023/03/31 06:14:12;;;;;;;6.88;2.20;;;12.10;99.90;;;;;;4962521;28;20043;-84
2023/03/31 06:16:38;;;;;;;14.02;2.67;;;12.10;99.90;;;;;;4969935;28;20034;-84
2023/03/31 06:19:03;;;;;;;7.78;2.38;;;12.10;99.90;;;;;;4956684;28;20018;-86
2023/03/31 06:21:29;;;;;;;8.73;2.55;;;12.20;99.90;;;;;;4954279;28;20086;-83
2023/03/31 06:23:57;;;;;;;8.70;2.20;;;12.20;99.90;;;;;;4968021;28;20216;-94
2023/03/31 06:26:23;;;;;;;8.85;2.03;;;12.10;99.90;;;;;;4957773;28;20034;-95
2023/03/31 06:28:49;;;;;;;4.20;1.80;;;12.10;99.90;;;;;;4958418;28;20147;-85
2023/03/31 06:31:18;;;;;;;11.60;2.05;;;12.20;99.90;;;;;;4962285;28;20033;-91
2023/03/31 06:33:44;;;;;;;9.88;2.13;;;12.10;99.90;;;;;;4963093;28;20079;-82
2023/03/31 06:36:12;;;;;;;8.50;2.22;;;12.10;99.90;;;;;;4957740;28;20093;-86
2023/03/31 06:38:38;;;;;;;11.18;1.70;;;12.10;99.90;;;;;;4964738;28;20560;-83
2023/03/31 06:41:05;;;;;;;3.40;1.60;;;12.10;99.90;;;;;;4963233;28;20026;-78
2023/03/31 06:43:31;;;;;;;5.50;1.52;;;12.00;99.90;;;;;;4963016;28;20485;-77
2023/03/31 06:45:57;;;;;;;3.40;1.35;;;12.00;99.90;;;;;;4965669;28;20510;-78
2023/03/31 06:48:27;;;;;;;6.97;1.67;;;12.00;99.90;;;;;;4960947;28;20023;-79
2023/03/31 06:50:54;;;;;;;4.90;1.40;;;12.10;99.90;;;;;;4954061;28;20051;-85
2023/03/31 06:53:21;;;;;;;8.07;1.88;;;12.00;99.90;;;;;;4969950;28;20033;-90
2023/03/31 06:55:47;;;;;;;8.15;1.60;;;12.00;99.90;;;;;;4993738;23;20514;-78
2023/03/31 06:58:12;;;;;;;6.13;1.77;;;11.80;99.90;;;;;;4969367;28;20191;-78
2023/03/31 07:00:39;;;;;;;5.95;1.33;;;11.70;99.90;;;;;;4952570;28;20026;-77
2023/03/31 07:03:05;;;;;;;1.58;1.17;;;11.70;99.90;;;;;;4974390;28;20145;-79
2023/03/31 07:05:31;;;;;;;4.53;1.42;;;11.70;99.90;;;;;;4981847;28;20539;-85
2023/03/31 07:07:58;;;;;;;9.07;1.65;;;11.80;99.90;;;;;;4974254;28;20030;-89
2023/03/31 07:10:27;;;;;;;24.30;7.53;;;11.80;99.90;;;;;;4958263;28;20031;-79
2023/03/31 07:12:53;;;;;;;10.38;1.92;;;11.60;99.90;;;;;;4972838;28;20026;-87
2023/03/31 07:15:22;;;;;;;3.90;1.50;;;11.70;99.90;;;;;;4987004;28;21098;-86
2023/03/31 07:17:49;;;;;;;8.55;2.20;;;11.60;99.90;;;;;;4980200;28;20026;-88
2023/03/31 07:20:16;;;;;;;8.07;1.40;;;11.60;99.90;;;;;;4977146;28;20027;-84
2023/03/31 07:22:43;;;;;;;6.20;1.27;;;11.50;99.90;;;;;;4960006;28;20035;-87
2023/03/31 07:25:11;;;;;;;5.07;1.40;;;11.50;99.90;;;;;;4966004;28;20302;-86
2023/03/31 07:27:37;;;;;;;9.65;1.42;;;11.50;99.90;;;;;;4962448;28;20524;-82
2023/03/31 07:30:08;;;;;;;7.43;1.42;;;11.50;99.90;;;;;;4976568;28;20019;-84
2023/03/31 07:32:40;;;;;;;4.00;1.30;;;11.50;99.90;;;;;;4980697;28;20023;-89
2023/03/31 07:35:10;;;;;;;3.07;1.00;;;11.50;99.90;;;;;;4983872;28;20574;-87
2023/03/31 07:37:37;;;;;;;5.30;1.33;;;11.60;99.90;;;;;;4971408;28;20274;-83
2023/03/31 07:40:06;;;;;;;4.40;1.95;;;11.60;99.90;;;;;;4988058;28;20095;-87
2023/03/31 07:42:35;;;;;;;3.88;1.30;;;11.50;99.90;;;;;;4989508;28;20050;-89
2023/03/31 07:45:04;;;;;;;7.78;2.10;;;11.60;99.90;;;;;;4978928;28;20030;-84
2023/03/31 07:47:30;;;;;;;4.55;1.77;;;11.60;99.90;;;;;;4982679;28;20029;-86
2023/03/31 07:49:57;;;;;;;8.38;1.73;;;11.50;99.90;;;;;;4986922;28;20019;-86
2023/03/31 07:52:23;;;;;;;39.13;15.15;;;11.60;99.90;;;;;;4989093;28;20034;-82
2023/03/31 07:54:50;;;;;;;4.00;1.33;;;11.70;99.90;;;;;;5035183;23;20074;-86
2023/03/31 07:57:18;;;;;;;5.97;1.23;;;11.70;99.90;;;;;;4986185;28;20050;-85
2023/03/31 07:59:46;;;;;;;6.03;1.20;;;11.70;99.90;;;;;;4970949;28;20022;-82
2023/03/31 08:02:16;;;;;;;8.35;1.48;;;11.80;99.90;;;;;;4990065;28;20057;-86
2023/03/31 08:04:42;;;;;;;7.07;1.20;;;11.70;99.90;;;;;;4984763;28;20042;-84
2023/03/31 08:07:09;;;;;;;2.95;1.30;;;11.70;99.90;;;;;;4968510;28;20031;-83
2023/03/31 08:09:35;;;;;;;5.68;1.40;;;11.70;99.90;;;;;;4962470;28;20026;-85
2023/03/31 08:12:04;;;;;;;4.50;1.08;;;11.80;99.90;;;;;;4965367;28;20023;-87
2023/03/31 08:14:29;;;;;;;3.65;1.33;;;11.80;99.90;;;;;;4976261;28;20046;-88
2023/03/31 08:16:59;;;;;;;7.53;1.60;;;11.80;99.90;;;;;;4978065;28;20038;-84
2023/03/31 08:19:25;;;;;;;8.23;1.58;;;11.70;99.90;;;;;;4983352;28;20369;-82
2023/03/31 08:21:51;;;;;;;5.00;1.73;;;11.80;99.90;;;;;;4978771;28;20018;-85
2023/03/31 08:24:17;;;;;;;6.22;1.35;;;11.80;99.90;;;;;;4960878;28;20034;-88
2023/03/31 08:26:43;;;;;;;7.15;1.20;;;11.90;99.90;;;;;;4977917;28;20026;-90
2023/03/31 08:29:12;;;;;;;4.32;1.10;;;11.90;99.90;;;;;;4979927;28;20026;-85
2023/03/31 08:31:40;;;;;;;8.90;1.65;;;11.80;99.90;;;;;;4961841;28;20388;-86
2023/03/31 08:34:05;;;;;;;4.63;1.23;;;11.90;99.90;;;;;;4965972;28;20040;-85
2023/03/31 08:36:32;;;;;;;6.90;1.30;;;11.90;99.90;;;;;;4980245;28;20211;-86
2023/03/31 08:38:58;;;;;;;6.22;1.80;;;11.90;99.90;;;;;;4974291;28;20113;-86
2023/03/31 08:41:45;;;;;;;3.95;1.48;;;12.00;99.90;;;;;;4965180;28;20058;-86
2023/03/31 08:44:23;;;;;;;3.65;1.40;;;12.00;99.90;;;;;;4975505;28;20325;-87
2023/03/31 08:46:53;;;;;;;17.85;2.83;;;12.10;99.90;;;;;;4983276;28;20077;-89
2023/03/31 08:49:20;;;;;;;8.93;2.22;;;12.10;99.90;;;;;;4976639;28;20015;-84
2023/03/31 08:52:06;;;;;;;13.43;1.75;;;12.00;99.90;;;;;;4965168;28;20029;-87
2023/03/31 08:54:33;;;;;;;11.02;2.20;;;12.00;99.90;;;;;;4973092;28;20457;-87
2023/03/31 08:57:00;;;;;;;10.75;2.40;;;12.10;99.90;;;;;;4975730;28;20023;-86
2023/03/31 08:59:30;;;;;;;8.73;2.33;;;12.10;99.90;;;;;;4962890;28;20037;-83
2023/03/31 09:02:02;;;;;;;7.07;1.50;;;12.00;99.90;;;;;;4972472;28;20019;-86
2023/03/31 09:05:10;;;;;;;9.87;1.97;;;12.10;99.90;;;;;;4976848;28;20548;-86
2023/03/31 09:07:45;;;;;;;10.77;2.40;;;12.10;99.90;;;;;;4962584;28;20144;-83
2023/03/31 09:10:29;;;;;;;8.45;2.63;;;12.20;99.90;;;;;;4980089;28;20031;-88
2023/03/31 09:13:23;;;;;;;10.25;1.85;;;12.30;99.90;;;;;;4957571;28;20025;-84
2023/03/31 09:16:10;;;;;;;10.77;2.10;;;12.30;99.90;;;;;;4978937;28;20050;-84
2023/03/31 09:18:42;;;;;;;8.25;2.10;;;12.20;99.90;;;;;;4964611;28;20089;-84
2023/03/31 09:21:40;;;;;;;7.00;2.38;;;12.30;99.90;;;;;;4978919;28;20081;-87
2023/03/31 09:24:35;;;;;;;6.95;1.75;;;12.40;99.90;;;;;;4964706;28;20031;-83
2023/03/31 09:27:06;;;;;;;10.52;1.77;;;12.40;99.90;;;;;;4970815;28;20026;-82
2023/03/31 09:29:54;;;;;;;7.55;1.90;;;12.60;99.90;;;;;;4973807;28;20023;-84
2023/03/31 09:32:23;;;;;;;7.05;1.75;;;12.80;99.90;;;;;;4968109;28;20034;-81
2023/03/31 09:35:01;;;;;;;12.00;2.28;;;13.00;99.90;;;;;;4976447;28;20056;-80
2023/03/31 09:37:32;;;;;;;8.70;2.20;;;13.00;99.90;;;;;;4960732;28;20041;-80
2023/03/31 09:40:06;;;;;;;11.45;2.78;;;13.10;99.90;;;;;;4953143;28;20447;-83
2023/03/31 09:42:33;;;;;;;12.85;1.60;;;13.30;99.90;;;;;;4934320;28;20037;-79
2023/03/31 09:44:59;;;;;;;13.88;2.80;;;13.50;99.90;;;;;;4952911;28;20378;-79
2023/03/31 09:47:37;;;;;;;10.73;2.00;;;13.50;99.90;;;;;;4948645;28;20037;-82
2023/03/31 09:50:08;;;;;;;12.52;2.28;;;13.70;99.90;;;;;;4935687;28;20023;-81
2023/03/31 09:52:41;;;;;;;8.93;2.03;;;13.80;99.90;;;;;;4937564;28;20031;-79
2023/03/31 09:55:28;;;;;;;16.90;2.50;;;14.10;99.90;;;;;;4938415;28;20133;-80
2023/03/31 09:58:02;;;;;;;14.50;2.70;;;14.40;99.90;;;;;;4938213;28;20042;-84
2023/03/31 10:00:28;;;;;;;16.55;2.60;;;14.60;99.90;;;;;;4937513;28;20027;-83
2023/03/31 10:02:56;;;;;;;12.10;3.30;;;14.50;99.90;;;;;;4953497;28;20401;-82
2023/03/31 10:05:40;;;;;;;12.55;2.55;;;14.40;99.90;;;;;;4944039;28;20122;-85
2023/03/31 10:08:32;;;;;;;12.75;2.83;;;14.50;99.90;;;;;;4941094;28;20123;-89
2023/03/31 10:11:01;;;;;;;11.73;1.67;;;14.40;99.90;;;;;;4946374;28;20146;-90
2023/03/31 10:13:45;;;;;;;13.90;3.30;;;14.10;99.90;;;;;;4939007;28;20066;-84
2023/03/31 10:16:26;;;;;;;7.07;2.38;;;14.00;99.90;;;;;;4963240;28;20209;-85
2023/03/31 10:18:52;;;;;;;11.10;1.75;;;14.00;99.90;;;;;;4954013;28;20066;-82
2023/03/31 10:21:27;;;;;;;14.48;1.98;;;14.00;99.90;;;;;;4955207;28;20066;-86
2023/03/31 10:23:54;;;;;;;8.82;2.17;;;14.10;99.90;;;;;;4945534;28;20045;-82
2023/03/31 10:26:26;;;;;;;12.93;2.45;;;14.30;99.90;;;;;;4953829;28;20039;-80
2023/03/31 10:28:55;;;;;;;12.73;2.45;;;14.50;99.90;;;;;;4939565;28;20075;-82
2023/03/31 10:31:25;;;;;;;12.00;2.28;;;14.70;99.90;;;;;;4941238;28;20054;-81
2023/03/31 10:33:57;;;;;;;9.95;2.10;;;15.10;99.90;;;;;;4937796;28;20288;-82
2023/03/31 10:36:28;;;;;;;9.45;2.20;;;15.10;99.90;;;;;;4942076;28;20134;-83
2023/03/31 10:38:55;;;;;;;17.02;2.55;;;15.20;99.90;;;;;;4940773;28;20039;-78
2023/03/31 10:41:25;;;;;;;9.18;2.60;;;15.30;99.90;;;;;;4955527;28;20082;-80
2023/03/31 10:44:02;;;;;;;13.10;1.70;;;15.60;99.90;;;;;;4941271;28;20039;-82
2023/03/31 10:46:48;;;;;;;16.75;2.67;;;15.90;99.90;;;;;;4960277;28;20026;-85
2023/03/31 10:49:22;;;;;;;10.13;2.17;;;16.20;99.90;;;;;;4949298;28;20249;-83
2023/03/31 10:51:52;;;;;;;11.35;2.17;;;15.90;99.90;;;;;;4957791;28;20046;-83
2023/03/31 10:54:18;;;;;;;10.07;1.90;;;15.50;99.90;;;;;;4962999;28;20031;-84
2023/03/31 10:56:46;;;;;;;6.88;1.98;;;15.20;99.90;;;;;;4947965;28;20047;-81
2023/03/31 10:59:27;;;;;;;4.95;1.73;;;15.20;99.90;;;;;;4944458;28;20483;-84
2023/03/31 11:02:14;;;;;;;195.10;61.80;;;15.40;99.90;;;;;;4944941;28;20553;-87
2023/03/31 11:04:52;;;;;;;8.73;2.38;;;15.40;99.90;;;;;;4937008;28;20217;-83
2023/03/31 11:07:20;;;;;;;12.15;2.30;;;15.50;99.90;;;;;;4955858;28;20953;-80
2023/03/31 11:09:52;;;;;;;19.55;2.50;;;15.50;99.90;;;;;;4945236;28;20034;-81
2023/03/31 11:12:27;;;;;;;4.82;1.70;;;15.40;99.90;;;;;;4944220;28;20133;-85
2023/03/31 11:15:26;;;;;;;8.95;1.98;;;15.40;99.90;;;;;;4943394;28;20042;-83
2023/03/31 11:18:05;;;;;;;10.32;2.03;;;15.30;99.90;;;;;;4940039;28;20019;-80
2023/03/31 11:20:34;;;;;;;12.52;1.77;;;15.00;99.90;;;;;;4943402;28;20094;-80
2023/03/31 11:23:31;;;;;;;8.65;1.83;;;15.00;99.90;;;;;;4953055;28;20125;-81
2023/03/31 11:26:17;;;;;;;9.35;1.88;;;14.80;99.90;;;;;;4943930;28;20024;-80
2023/03/31 11:28:59;;;;;;;5.40;1.50;;;14.70;99.90;;;;;;4939238;28;20487;-83
2023/03/31 11:31:47;;;;;;;6.22;1.38;;;14.70;99.90;;;;;;4943211;28;20038;-79
2023/03/31 11:34:47;;;;;;;7.53;1.60;;;14.80;99.90;;;;;;4945207;28;20137;-83
2023/03/31 11:37:44;;;;;;;13.90;2.85;;;15.10;99.90;;;;;;4947460;28;20230;-81
2023/03/31 11:40:35;;;;;;;9.02;1.88;;;15.00;99.90;;;;;;4940705;28;20050;-81
2023/03/31 11:43:28;;;;;;;14.00;2.33;;;14.90;99.90;;;;;;4955332;28;20031;-82
2023/03/31 11:45:57;;;;;;;;;;;15.00;99.90;;;;;;4946254;28;20259;-82
2023/03/31 11:48:45;;;;;;;6.90;1.58;;;15.10;99.90;;;;;;4941791;28;19941;-82
2023/03/31 11:51:36;;;;;;;9.05;1.63;;;15.40;99.90;;;;;;4938921;28;20089;-82
2023/03/31 11:54:10;;;;;;;13.27;1.85;;;15.50;99.90;;;;;;4947741;28;20034;-83
2023/03/31 11:56:38;;;;;;;6.65;1.60;;;15.30;99.90;;;;;;4958128;28;20042;-83
2023/03/31 11:59:06;;;;;;;8.18;2.25;;;15.30;99.90;;;;;;4947569;28;20211;-84
2023/03/31 12:01:43;;;;;;;11.27;1.98;;;15.50;99.90;;;;;;4944268;28;20056;-82
2023/03/31 12:04:41;;;;;;;9.63;1.65;;;15.30;99.90;;;;;;4957868;28;20081;-81
2023/03/31 12:07:40;;;;;;;8.02;2.00;;;15.50;99.90;;;;;;4955121;28;20490;-79
2023/03/31 12:10:22;;;;;;;9.23;1.90;;;15.50;99.90;;;;;;4940512;28;20019;-83
2023/03/31 12:13:14;;;;;;;3.63;1.33;;;15.50;99.90;;;;;;4949482;28;20027;-80
2023/03/31 12:15:45;;;;;;;5.93;1.35;;;15.50;99.90;;;;;;4931253;28;20377;-82
2023/03/31 12:18:19;;;;;;;4.60;1.30;;;15.40;99.90;;;;;;4940406;28;20035;-81
2023/03/31 12:21:01;;;;;;;9.20;1.85;;;15.50;99.90;;;;;;4943065;28;20026;-83
2023/03/31 12:23:32;;;;;;;84.47;33.08;;;15.30;99.90;;;;;;4941795;28;20068;-80
2023/03/31 12:26:17;;;;;;;107.15;40.65;;;15.40;99.90;;;;;;4952479;28;20043;-82
2023/03/31 12:28:45;;;;;;;10.05;2.00;;;15.50;99.90;;;;;;4951672;28;20065;-80
2023/03/31 12:31:20;;;;;;;11.13;2.03;;;15.60;99.90;;;;;;4940325;28;20043;-79
2023/03/31 12:33:56;;;;;;;9.80;1.65;;;15.90;99.90;;;;;;4951363;28;20162;-82
2023/03/31 12:36:37;;;;;;;7.78;1.50;;;15.90;99.90;;;;;;4947956;28;20057;-79
2023/03/31 12:39:30;;;;;;;13.50;2.17;;;15.70;99.90;;;;;;4949061;28;20047;-85
2023/03/31 12:42:39;;;;;;;12.40;1.83;;;15.80;99.90;;;;;;4936155;28;20027;-85
2023/03/31 12:45:11;;;;;;;13.05;2.45;;;15.80;99.90;;;;;;4926361;28;20032;-82
2023/03/31 12:47:54;;;;;;;11.63;2.30;;;15.70;99.90;;;;;;4952543;28;20511;-85
2023/03/31 12:50:49;;;;;;;5.70;1.60;;;15.80;99.90;;;;;;4952182;28;20030;-82
2023/03/31 12:53:15;;;;;;;12.82;1.85;;;15.70;99.90;;;;;;4924446;28;20038;-83
2023/03/31 12:55:50;;;;;;;11.02;2.25;;;16.10;99.90;;;;;;4945532;28;20035;-82
2023/03/31 12:58:28;;;;;;;8.60;1.80;;;16.30;99.90;;;;;;4949326;28;20026;-81
2023/03/31 13:01:06;;;;;;;8.82;1.75;;;16.20;99.90;;;;;;4934929;28;20038;-85
2023/03/31 13:03:34;;;;;;;16.88;1.95;;;15.90;99.90;;;;;;4951401;28;20031;-83
2023/03/31 13:06:04;;;;;;;11.25;1.90;;;15.80;99.90;;;;;;4935391;28;20092;-82
2023/03/31 13:09:00;;;;;;;9.02;1.95;;;15.60;99.90;;;;;;4941124;28;20022;-81
2023/03/31 13:11:35;;;;;;;5.97;1.80;;;15.80;99.90;;;;;;4950338;28;20027;-82